createdAt,value
2022-10-28T00:02:29.501Z,74.42
2022-10-28T00:05:11.716Z,73.94
2022-10-28T00:08:00.442Z,74.00
2022-10-28T00:10:42.849Z,73.84
2022-10-28T00:13:32.464Z,74.17
2022-10-28T00:16:24.727Z,74.63
2022-10-28T00:19:09.420Z,74.66
2022-10-28T00:21:58.334Z,75.13
2022-10-28T00:24:47.345Z,74.95
2022-10-28T00:27:35.812Z,74.96
2022-10-28T00:30:18.395Z,75.24
2022-10-28T00:33:06.704Z,75.23
2022-10-28T00:35:49.334Z,75.30
2022-10-28T00:38:39.699Z,75.26
2022-10-28T00:41:28.483Z,75.03
2022-10-28T00:44:48.445Z,74.96
2022-10-28T00:47:50.610Z,75.36
2022-10-28T00:50:41.806Z,75.54
2022-10-28T00:53:43.344Z,75.39
2022-10-28T00:56:35.457Z,75.72
2022-10-28T00:59:42.732Z,75.74
2022-10-28T01:02:31.845Z,75.81
2022-10-28T01:05:13.712Z,75.49
2022-10-28T01:08:07.418Z,75.22
2022-10-28T01:11:19.434Z,75.39
2022-10-28T01:14:33.454Z,75.45
2022-10-28T01:17:52.359Z,75.35
2022-10-28T01:21:28.331Z,75.72
2022-10-28T01:24:13.657Z,74.66
2022-10-28T01:27:22.423Z,74.07
2022-10-28T01:30:27.956Z,74.23
2022-10-28T01:33:24.469Z,73.86
2022-10-28T01:36:19.701Z,73.42
2022-10-28T01:39:01.437Z,73.02
2022-10-28T01:41:58.416Z,72.67
2022-10-28T01:45:07.738Z,72.49
2022-10-28T01:47:59.450Z,72.58
2022-10-28T01:51:03.700Z,73.17
2022-10-28T01:53:56.445Z,72.87
2022-10-28T01:56:53.324Z,72.99
2022-10-28T01:59:43.421Z,73.05
2022-10-28T02:02:33.450Z,71.90
2022-10-28T02:05:52.422Z,70.82
2022-10-28T02:08:46.695Z,72.35
2022-10-28T02:11:38.414Z,71.54
2022-10-28T02:14:40.128Z,71.57
2022-10-28T02:17:50.686Z,71.48
2022-10-28T02:20:57.401Z,71.93
2022-10-28T02:23:46.417Z,71.43
2022-10-28T02:26:29.707Z,71.43
2022-10-28T02:29:26.449Z,70.90
2022-10-28T02:32:15.752Z,71.05
2022-10-28T02:35:09.335Z,70.82
2022-10-28T02:37:55.706Z,70.95
2022-10-28T02:40:47.367Z,70.68
2022-10-28T02:43:32.690Z,70.46
2022-10-28T02:46:22.412Z,70.88
2022-10-28T02:49:11.667Z,69.74
2022-10-28T02:52:10.425Z,68.91
2022-10-28T02:55:09.419Z,69.70
2022-10-28T02:57:59.458Z,70.07
2022-10-28T03:00:41.872Z,69.70
2022-10-28T03:03:30.478Z,70.43
2022-10-28T03:06:12.706Z,69.87
2022-10-28T03:09:01.375Z,70.09
2022-10-28T03:11:43.676Z,68.59
2022-10-28T03:14:26.318Z,69.23
2022-10-28T03:17:14.737Z,69.59
2022-10-28T03:19:57.468Z,70.04
2022-10-28T03:22:39.785Z,68.48
2022-10-28T03:25:28.401Z,68.08
2022-10-28T03:28:10.574Z,66.50
2022-10-28T03:30:59.406Z,63.64
2022-10-28T03:33:48.325Z,61.43
2022-10-28T03:36:30.837Z,61.35
2022-10-28T03:39:19.422Z,60.57
2022-10-28T03:42:01.667Z,60.60
2022-10-28T03:44:50.347Z,59.59
2022-10-28T03:47:39.724Z,58.78
2022-10-28T03:50:27.688Z,56.20
2022-10-28T03:53:10.416Z,55.92
2022-10-28T03:55:57.178Z,55.13
2022-10-28T03:58:46.451Z,55.01
2022-10-28T04:01:28.687Z,51.78
2022-10-28T04:04:17.422Z,52.29
2022-10-28T04:06:59.615Z,51.70
2022-10-28T04:09:48.476Z,50.31
2022-10-28T04:12:36.695Z,49.05
2022-10-28T04:15:31.423Z,47.32
2022-10-28T04:18:20.677Z,49.36
2022-10-28T04:21:03.444Z,47.47
2022-10-28T04:23:45.594Z,47.08
2022-10-28T04:26:35.413Z,48.12
2022-10-28T04:29:23.693Z,45.46
2022-10-28T04:32:07.351Z,45.46
2022-10-28T04:34:55.733Z,45.84
2022-10-28T04:37:38.397Z,46.35
2022-10-28T04:40:20.654Z,48.24
2022-10-28T04:43:10.226Z,43.81
2022-10-28T04:45:52.687Z,46.96
2022-10-28T04:48:41.412Z,44.52
2022-10-28T04:51:30.329Z,46.59
2022-10-28T04:54:12.694Z,46.08
2022-10-28T04:57:03.405Z,43.51
2022-10-28T04:59:52.379Z,46.11
2022-10-28T05:02:34.905Z,41.23
2022-10-28T05:05:23.377Z,43.46
2022-10-28T05:08:12.399Z,43.42
2022-10-28T05:11:01.413Z,42.24
2022-10-28T05:13:43.850Z,42.05
2022-10-28T05:16:32.394Z,39.66
2022-10-28T05:19:21.389Z,41.46
2022-10-28T05:22:10.416Z,40.09
2022-10-28T05:25:14.255Z,42.33
2022-10-28T05:28:07.458Z,41.96
2022-10-28T05:30:56.453Z,41.26
2022-10-28T05:33:38.710Z,42.14
2022-10-28T05:36:27.334Z,39.59
2022-10-28T05:39:16.392Z,39.54
2022-10-28T05:41:58.831Z,42.97
2022-10-28T05:44:47.420Z,38.27
2022-10-28T05:47:39.245Z,39.15
2022-10-28T05:50:29.712Z,43.18
2022-10-28T05:53:12.770Z,39.21
2022-10-28T05:55:54.744Z,38.79
2022-10-28T05:58:43.497Z,39.09
2022-10-28T06:01:32.790Z,38.65
2022-10-28T06:04:14.479Z,39.86
2022-10-28T06:07:03.733Z,38.45
2022-10-28T06:09:46.394Z,40.01
2022-10-28T06:12:27.514Z,38.64
2022-10-28T06:15:16.936Z,40.90
2022-10-28T06:18:05.481Z,39.43
2022-10-28T06:20:48.894Z,41.75
2022-10-28T06:23:37.782Z,37.88
2022-10-28T06:26:26.900Z,40.03
2022-10-28T06:29:17.792Z,37.71
2022-10-28T06:32:06.795Z,39.42
2022-10-28T06:34:55.279Z,37.52
2022-10-28T06:37:37.881Z,39.18
2022-10-28T06:40:26.917Z,38.22
2022-10-28T06:43:12.135Z,37.89
2022-10-28T06:46:02.814Z,37.62
2022-10-28T06:48:46.742Z,38.92
2022-10-28T06:51:35.478Z,39.20
2022-10-28T06:54:17.731Z,37.34
2022-10-28T06:57:06.319Z,38.68
2022-10-28T06:59:50.937Z,37.77
2022-10-28T07:02:42.780Z,36.51
2022-10-28T07:05:28.720Z,39.25
2022-10-28T07:08:17.360Z,36.54
2022-10-28T07:11:14.463Z,37.98
2022-10-28T07:14:03.744Z,36.89
2022-10-28T07:16:52.440Z,37.03
2022-10-28T07:19:41.346Z,36.50
2022-10-28T07:22:30.439Z,38.50
2022-10-28T07:25:12.763Z,36.53
2022-10-28T07:28:01.454Z,36.29
2022-10-28T07:30:43.720Z,38.03
2022-10-28T07:33:32.369Z,36.17
2022-10-28T07:36:22.454Z,36.10
2022-10-28T07:39:11.357Z,35.13
2022-10-28T07:41:53.781Z,35.04
2022-10-28T07:44:42.493Z,35.27
2022-10-28T07:47:24.736Z,33.33
2022-10-28T07:50:14.517Z,33.40
2022-10-28T07:53:03.424Z,32.98
2022-10-28T07:55:52.423Z,32.74
2022-10-28T07:58:35.723Z,32.18
2022-10-28T08:01:26.496Z,32.48
2022-10-28T08:04:08.736Z,33.97
2022-10-28T08:06:57.423Z,34.88
2022-10-28T08:09:46.333Z,31.70
2022-10-28T08:12:36.419Z,32.44
2022-10-28T08:15:19.510Z,33.87
2022-10-28T08:18:08.420Z,33.90
2022-10-28T08:20:57.335Z,33.56
2022-10-28T08:23:46.405Z,32.18
2022-10-28T08:26:35.414Z,33.53
2022-10-28T08:29:29.876Z,35.26
2022-10-28T08:32:15.306Z,33.67
2022-10-28T08:35:04.389Z,33.80
2022-10-28T08:37:47.224Z,33.05
2022-10-28T08:40:47.442Z,33.26
2022-10-28T08:43:40.248Z,33.50
2022-10-28T08:46:59.472Z,33.36
2022-10-28T08:49:47.155Z,33.76
2022-10-28T08:52:51.634Z,33.98
2022-10-28T08:55:48.819Z,35.35
2022-10-28T08:58:42.403Z,34.54
2022-10-28T09:02:03.404Z,33.22
2022-10-28T09:04:54.321Z,32.19
2022-10-28T09:07:45.747Z,31.83
2022-10-28T09:10:54.418Z,32.12
2022-10-28T09:14:03.773Z,30.67
2022-10-28T09:16:58.433Z,32.08
2022-10-28T09:19:59.676Z,32.04
2022-10-28T09:22:48.408Z,32.20
2022-10-28T09:25:49.779Z,32.66
2022-10-28T09:29:05.459Z,32.71
2022-10-28T09:32:08.699Z,31.87
2022-10-28T09:35:09.341Z,33.31
2022-10-28T09:38:05.444Z,33.31
2022-10-28T09:41:00.860Z,32.86
2022-10-28T09:43:49.398Z,32.41
2022-10-28T09:46:39.844Z,32.91
2022-10-28T09:49:29.405Z,34.77
2022-10-28T09:52:21.239Z,33.33
2022-10-28T09:55:13.406Z,32.91
2022-10-28T09:58:02.424Z,32.96
2022-10-28T10:00:45.668Z,32.50
2022-10-28T10:03:34.734Z,33.27
2022-10-28T10:06:43.811Z,36.68
2022-10-28T10:09:36.447Z,37.78
2022-10-28T10:12:20.680Z,34.50
2022-10-28T10:15:13.395Z,33.05
2022-10-28T10:17:56.879Z,34.69
2022-10-28T10:20:59.325Z,34.77
2022-10-28T10:23:43.738Z,34.47
2022-10-28T10:26:32.406Z,34.37
2022-10-28T10:29:20.676Z,34.94
2022-10-28T10:32:33.335Z,35.21
2022-10-28T10:35:30.872Z,35.66
2022-10-28T10:38:24.284Z,36.80
2022-10-28T10:41:06.673Z,38.79
2022-10-28T10:43:55.329Z,39.67
2022-10-28T10:46:37.706Z,40.74
2022-10-28T10:49:27.296Z,39.65
2022-10-28T10:52:38.412Z,39.29
2022-10-28T10:55:48.683Z,40.78
2022-10-28T10:58:38.399Z,40.73
2022-10-28T11:01:31.346Z,42.65
2022-10-28T11:04:30.395Z,43.29
2022-10-28T11:07:23.320Z,45.72
2022-10-28T11:10:13.288Z,45.03
2022-10-28T11:13:12.416Z,45.19
2022-10-28T11:16:37.235Z,45.72
2022-10-28T11:19:44.331Z,46.65
2022-10-28T11:22:32.678Z,46.32
2022-10-28T11:25:43.321Z,48.72
2022-10-28T11:28:57.460Z,48.32
2022-10-28T11:32:01.699Z,48.36
2022-10-28T11:35:02.455Z,49.27
2022-10-28T11:38:14.045Z,49.00
2022-10-28T11:41:29.359Z,50.22
2022-10-28T11:44:45.599Z,50.84
2022-10-28T11:47:39.383Z,52.61
2022-10-28T11:51:09.389Z,53.17
2022-10-28T11:53:57.704Z,52.49
2022-10-28T11:57:13.408Z,53.51
2022-10-28T12:00:32.898Z,53.61
2022-10-28T12:03:42.389Z,52.46
2022-10-28T12:06:38.327Z,53.70
2022-10-28T12:09:36.668Z,53.06
2022-10-28T12:12:25.383Z,53.85
2022-10-28T12:15:47.299Z,53.46
2022-10-28T12:18:49.439Z,54.89
2022-10-28T12:21:39.768Z,55.20
2022-10-28T12:24:31.374Z,55.27
2022-10-28T12:27:36.737Z,56.74
2022-10-28T12:30:35.308Z,57.07
2022-10-28T12:33:37.460Z,56.12
2022-10-28T12:36:26.089Z,56.52
2022-10-28T12:39:42.332Z,57.14
2022-10-28T12:42:29.501Z,57.66
2022-10-28T12:45:22.320Z,57.19
2022-10-28T12:49:02.652Z,57.65
2022-10-28T12:51:48.329Z,57.36
2022-10-28T12:54:53.670Z,57.53
2022-10-28T12:57:39.320Z,57.83
2022-10-28T13:00:57.432Z,58.71
2022-10-28T13:03:47.376Z,59.14
2022-10-28T13:06:50.794Z,58.38
2022-10-28T13:09:45.392Z,59.70
2022-10-28T13:12:45.679Z,59.42
2022-10-28T13:15:34.393Z,59.93
2022-10-28T13:18:56.694Z,59.34
2022-10-28T13:21:51.428Z,59.32
2022-10-28T13:24:56.724Z,58.89
2022-10-28T13:27:45.369Z,60.38
2022-10-28T13:30:28.683Z,61.04
2022-10-28T13:33:29.312Z,61.65
2022-10-28T13:36:34.381Z,61.20
2022-10-28T13:39:33.395Z,61.56
2022-10-28T13:42:24.450Z,61.91
2022-10-28T13:45:13.386Z,62.11
2022-10-28T13:47:55.813Z,62.41
2022-10-28T13:50:45.332Z,62.00
2022-10-28T13:53:46.900Z,62.19
2022-10-28T13:56:35.422Z,62.28
2022-10-28T13:59:20.678Z,62.98
2022-10-28T14:02:33.235Z,62.59
2022-10-28T14:05:28.363Z,62.68
2022-10-28T14:08:35.400Z,62.37
2022-10-28T14:11:22.808Z,62.75
2022-10-28T14:14:12.372Z,62.57
2022-10-28T14:17:08.364Z,61.30
2022-10-28T14:19:53.310Z,61.68
2022-10-28T14:22:50.381Z,61.25
2022-10-28T14:25:53.288Z,62.56
2022-10-28T14:28:42.436Z,61.89
2022-10-28T14:31:42.307Z,62.62
2022-10-28T14:34:31.386Z,62.09
2022-10-28T14:37:50.897Z,61.30
2022-10-28T14:40:53.393Z,62.45
2022-10-28T14:44:04.480Z,61.75
2022-10-28T14:47:31.496Z,61.94
2022-10-28T14:50:35.675Z,62.24
2022-10-28T14:53:42.334Z,62.53
2022-10-28T14:56:30.580Z,62.22
2022-10-28T14:59:50.382Z,61.72
2022-10-28T15:02:41.767Z,62.25
2022-10-28T15:05:29.363Z,61.95
2022-10-28T15:08:12.706Z,61.15
2022-10-28T15:11:04.324Z,61.33
2022-10-28T15:13:53.050Z,61.82
2022-10-28T15:16:42.361Z,62.82
2022-10-28T15:19:34.400Z,61.61
2022-10-28T15:22:34.311Z,61.41
2022-10-28T15:25:26.316Z,62.42
2022-10-28T15:28:15.383Z,62.07
2022-10-28T15:31:05.645Z,62.08
2022-10-28T15:33:50.450Z,61.96
2022-10-28T15:36:39.939Z,61.81
2022-10-28T15:39:25.387Z,61.40
2022-10-28T15:42:32.243Z,62.63
2022-10-28T15:45:30.389Z,63.81
2022-10-28T15:48:22.412Z,64.80
2022-10-28T15:51:22.797Z,64.97
2022-10-28T15:54:26.342Z,64.86
2022-10-28T15:57:08.796Z,65.11
2022-10-28T15:59:57.404Z,65.28
2022-10-28T16:02:57.683Z,64.63
2022-10-28T16:05:52.363Z,65.77
2022-10-28T16:08:39.801Z,65.45
2022-10-28T16:11:28.382Z,66.04
2022-10-28T16:14:27.877Z,65.87
2022-10-28T16:17:31.392Z,65.61
2022-10-28T16:20:19.195Z,66.92
2022-10-28T16:23:08.308Z,66.82
2022-10-28T16:25:50.741Z,66.86
2022-10-28T16:28:44.926Z,67.29
2022-10-28T16:31:30.764Z,67.24
2022-10-28T16:34:23.385Z,67.24
2022-10-28T16:37:05.709Z,67.99
2022-10-28T16:39:54.372Z,67.56
2022-10-28T16:42:36.655Z,68.17
2022-10-28T16:45:26.323Z,68.81
2022-10-28T16:48:08.654Z,68.85
2022-10-28T16:51:06.300Z,68.53
2022-10-28T16:53:57.383Z,68.48
2022-10-28T16:56:46.342Z,67.85
2022-10-28T16:59:35.378Z,67.20
2022-10-28T17:02:29.447Z,67.16
2022-10-28T17:05:18.436Z,66.61
2022-10-28T17:08:09.892Z,67.03
2022-10-28T17:10:53.471Z,67.87
2022-10-28T17:13:36.027Z,68.26
2022-10-28T17:16:25.322Z,68.22
2022-10-28T17:19:14.692Z,68.38
2022-10-28T17:21:57.368Z,68.72
2022-10-28T17:24:40.014Z,68.97
2022-10-28T17:27:30.363Z,68.65
2022-10-28T17:30:19.574Z,69.03
2022-10-28T17:33:09.294Z,69.52
2022-10-28T17:35:58.410Z,69.71
2022-10-28T17:38:40.810Z,69.18
2022-10-28T17:41:29.434Z,68.72
2022-10-28T17:44:14.230Z,69.24
2022-10-28T17:47:03.430Z,68.33
2022-10-28T17:49:45.667Z,68.15
2022-10-28T17:52:38.277Z,68.33
2022-10-28T17:55:20.681Z,67.92
2022-10-28T17:58:09.371Z,68.28
2022-10-28T18:00:51.654Z,68.27
2022-10-28T18:03:42.414Z,67.85
2022-10-28T18:06:31.356Z,68.14
2022-10-28T18:09:14.398Z,68.51
2022-10-28T18:12:04.279Z,68.39
2022-10-28T18:14:47.478Z,68.81
2022-10-28T18:17:36.298Z,68.57
2022-10-28T18:20:25.464Z,69.17
2022-10-28T18:23:07.378Z,69.03
2022-10-28T18:26:02.310Z,69.30
2022-10-28T18:28:54.403Z,69.70
2022-10-28T18:31:38.312Z,69.85
2022-10-28T18:34:29.414Z,70.12
2022-10-28T18:37:19.380Z,70.32
2022-10-28T18:40:10.012Z,70.21
2022-10-28T18:42:55.258Z,70.14
2022-10-28T18:45:45.115Z,70.22
2022-10-28T18:48:27.624Z,70.30
2022-10-28T18:51:19.386Z,69.98
2022-10-28T18:54:02.139Z,70.37
2022-10-28T18:56:53.689Z,70.15
2022-10-28T19:00:16.924Z,70.36
2022-10-28T19:02:48.129Z,70.63
2022-10-28T19:05:37.352Z,70.50
2022-10-28T19:08:19.792Z,70.46
2022-10-28T19:11:10.323Z,70.70
2022-10-28T19:13:53.380Z,70.39
2022-10-28T19:16:43.373Z,70.53
2022-10-28T19:19:25.796Z,70.58
2022-10-28T19:22:16.455Z,70.95
2022-10-28T19:24:58.734Z,70.77
2022-10-28T19:27:47.292Z,70.88
2022-10-28T19:30:36.398Z,70.83
2022-10-28T19:33:26.701Z,71.09
2022-10-28T19:36:10.357Z,71.44
2022-10-28T19:39:07.344Z,71.74
2022-10-28T19:41:57.440Z,71.51
2022-10-28T19:44:39.643Z,71.36
2022-10-28T19:47:28.354Z,71.16
2022-10-28T19:50:10.785Z,71.22
2022-10-28T19:52:59.360Z,71.04
2022-10-28T19:55:41.659Z,71.00
2022-10-28T19:58:30.249Z,71.27
2022-10-28T20:01:22.385Z,70.80
2022-10-28T20:04:12.642Z,70.15
2022-10-28T20:06:54.270Z,70.81
2022-10-28T20:09:43.615Z,70.54
2022-10-28T20:12:26.327Z,70.25
2022-10-28T20:15:15.269Z,70.73
2022-10-28T20:18:03.638Z,70.19
2022-10-28T20:20:45.338Z,70.71
2022-10-28T20:23:34.183Z,70.67
2022-10-28T20:26:17.333Z,70.49
2022-10-28T20:29:14.330Z,70.47
2022-10-28T20:32:03.276Z,70.46
2022-10-28T20:34:45.655Z,70.63
2022-10-28T20:37:34.242Z,71.01
2022-10-28T20:40:17.612Z,70.97
2022-10-28T20:43:06.330Z,71.02
2022-10-28T20:45:48.602Z,71.17
2022-10-28T20:48:38.413Z,71.21
2022-10-28T20:51:20.655Z,71.46
2022-10-28T20:54:09.347Z,71.44
2022-10-28T20:56:51.644Z,71.19
2022-10-28T20:59:40.352Z,71.48
2022-10-28T21:02:22.719Z,71.70
2022-10-28T21:05:11.343Z,71.74
2022-10-28T21:07:53.893Z,72.13
2022-10-28T21:10:43.275Z,71.87
2022-10-28T21:13:33.412Z,71.97
2022-10-28T21:16:28.195Z,72.06
2022-10-28T21:19:17.260Z,72.57
2022-10-28T21:21:59.737Z,72.04
2022-10-28T21:24:48.372Z,72.24
2022-10-28T21:27:37.324Z,72.29
2022-10-28T21:30:26.693Z,71.98
2022-10-28T21:33:11.348Z,71.70
2022-10-28T21:36:00.938Z,72.36
2022-10-28T21:38:50.250Z,71.78
2022-10-28T21:41:39.224Z,71.71
2022-10-28T21:44:28.237Z,71.62
2022-10-28T21:47:10.562Z,71.59
2022-10-28T21:49:59.394Z,71.97
2022-10-28T21:52:47.701Z,71.95
2022-10-28T21:55:42.054Z,72.13
2022-10-28T21:58:28.480Z,72.74
2022-10-28T22:01:23.483Z,72.83
2022-10-28T22:04:12.242Z,73.03
2022-10-28T22:07:01.327Z,72.85
2022-10-28T22:09:50.223Z,72.34
2022-10-28T22:12:39.367Z,72.48
2022-10-28T22:15:21.531Z,72.56
2022-10-28T22:18:10.333Z,72.66
2022-10-28T22:20:59.207Z,73.13
2022-10-28T22:23:48.327Z,73.56
2022-10-28T22:26:38.244Z,73.46
2022-10-28T22:29:27.253Z,73.48
2022-10-28T22:32:15.604Z,73.99
2022-10-28T22:34:58.311Z,73.60
2022-10-28T22:37:53.594Z,73.40
2022-10-28T22:40:42.300Z,73.28
2022-10-28T22:43:31.370Z,72.63
2022-10-28T22:46:20.692Z,72.78
2022-10-28T22:49:03.328Z,72.83
2022-10-28T22:51:45.563Z,73.38
2022-10-28T22:54:34.310Z,73.57
2022-10-28T22:57:16.512Z,73.14
2022-10-28T23:00:05.407Z,73.50
2022-10-28T23:02:53.964Z,73.36
2022-10-28T23:05:37.247Z,73.54
2022-10-28T23:08:25.641Z,73.73
2022-10-28T23:11:08.312Z,73.52
2022-10-28T23:14:02.217Z,73.67
2022-10-28T23:16:57.252Z,74.08
2022-10-28T23:19:45.638Z,73.89
2022-10-28T23:22:27.303Z,73.96
2022-10-28T23:25:10.123Z,73.20
2022-10-28T23:27:59.303Z,73.25
2022-10-28T23:30:41.522Z,73.40
2022-10-28T23:33:30.313Z,73.17
2022-10-28T23:36:21.225Z,73.24
2022-10-28T23:39:11.213Z,73.74
2022-10-28T23:41:53.520Z,72.85
2022-10-28T23:44:42.318Z,73.14
2022-10-28T23:47:31.241Z,72.97
2022-10-28T23:50:22.317Z,73.09
2022-10-28T23:53:11.287Z,72.42
2022-10-28T23:55:55.735Z,72.76
2022-10-28T23:58:45.656Z,72.56
